sensor_id;sensor_type;location;lat;lon;timestamp;pressure;altitude;pressure_sealevel;temperature;humidity
18436;BME280;9346;52.006;4.720;2022-10-16T00:01:42;100783.63;;;14.44;100.00
18436;BME280;9346;52.006;4.720;2022-10-16T00:04:12;100781.38;;;14.46;100.00
18436;BME280;9346;52.006;4.720;2022-10-16T00:06:40;100788.56;;;14.47;100.00
18436;BME280;9346;52.006;4.720;2022-10-16T00:09:08;100781.09;;;14.48;100.00
18436;BME280;9346;52.006;4.720;2022-10-16T00:11:37;100780.25;;;14.47;100.00
18436;BME280;9346;52.006;4.720;2022-10-16T00:14:08;100782.41;;;14.50;100.00
18436;BME280;9346;52.006;4.720;2022-10-16T00:16:36;100781.59;;;14.50;100.00
18436;BME280;9346;52.006;4.720;2022-10-16T00:19:05;100793.81;;;14.49;100.00
18436;BME280;9346;52.006;4.720;2022-10-16T00:21:34;100792.66;;;14.50;100.00
18436;BME280;9346;52.006;4.720;2022-10-16T00:24:03;100793.50;;;14.50;100.00
18436;BME280;9346;52.006;4.720;2022-10-16T00:26:34;100799.56;;;14.52;100.00
18436;BME280;9346;52.006;4.720;2022-10-16T00:29:02;100800.91;;;14.55;100.00
18436;BME280;9346;52.006;4.720;2022-10-16T00:31:32;100798.44;;;14.53;100.00
18436;BME280;9346;52.006;4.720;2022-10-16T00:33:59;100812.00;;;14.55;100.00
18436;BME280;9346;52.006;4.720;2022-10-16T00:36:28;100807.50;;;14.59;100.00
18436;BME280;9346;52.006;4.720;2022-10-16T00:38:59;100802.19;;;14.62;100.00
18436;BME280;9346;52.006;4.720;2022-10-16T00:41:27;100795.22;;;14.65;100.00
18436;BME280;9346;52.006;4.720;2022-10-16T00:43:56;100803.59;;;14.60;100.00
18436;BME280;9346;52.006;4.720;2022-10-16T00:46:26;100800.38;;;14.53;100.00
18436;BME280;9346;52.006;4.720;2022-10-16T00:48:57;100791.34;;;14.47;100.00
18436;BME280;9346;52.006;4.720;2022-10-16T00:51:32;100787.22;;;14.45;100.00
18436;BME280;9346;52.006;4.720;2022-10-16T00:53:59;100797.53;;;14.39;100.00
18436;BME280;9346;52.006;4.720;2022-10-16T00:56:27;100812.31;;;14.35;100.00
18436;BME280;9346;52.006;4.720;2022-10-16T00:58:54;100815.16;;;14.30;100.00
18436;BME280;9346;52.006;4.720;2022-10-16T01:01:21;100813.50;;;14.29;100.00
18436;BME280;9346;52.006;4.720;2022-10-16T01:03:48;100799.13;;;14.27;100.00
18436;BME280;9346;52.006;4.720;2022-10-16T01:06:24;100795.00;;;14.24;100.00
18436;BME280;9346;52.006;4.720;2022-10-16T01:09:13;100785.88;;;14.24;100.00
18436;BME280;9346;52.006;4.720;2022-10-16T01:11:49;100772.28;;;14.22;100.00
18436;BME280;9346;52.006;4.720;2022-10-16T01:14:22;100778.69;;;14.23;100.00
18436;BME280;9346;52.006;4.720;2022-10-16T01:16:56;100794.75;;;14.21;100.00
18436;BME280;9346;52.006;4.720;2022-10-16T01:19:44;100798.88;;;14.23;100.00
18436;BME280;9346;52.006;4.720;2022-10-16T01:22:16;100799.13;;;14.27;100.00
18436;BME280;9346;52.006;4.720;2022-10-16T01:24:49;100804.44;;;14.23;100.00
18436;BME280;9346;52.006;4.720;2022-10-16T01:27:21;100810.28;;;14.22;100.00
18436;BME280;9346;52.006;4.720;2022-10-16T01:29:53;100821.34;;;14.22;100.00
18436;BME280;9346;52.006;4.720;2022-10-16T01:32:28;100813.63;;;14.19;100.00
18436;BME280;9346;52.006;4.720;2022-10-16T01:35:00;100821.41;;;14.17;100.00
18436;BME280;9346;52.006;4.720;2022-10-16T01:37:34;100815.88;;;14.17;100.00
18436;BME280;9346;52.006;4.720;2022-10-16T01:40:05;100818.09;;;14.15;100.00
18436;BME280;9346;52.006;4.720;2022-10-16T01:42:38;100825.06;;;14.12;100.00
18436;BME280;9346;52.006;4.720;2022-10-16T01:45:07;100832.84;;;14.10;100.00
18436;BME280;9346;52.006;4.720;2022-10-16T01:47:37;100838.16;;;14.07;100.00
18436;BME280;9346;52.006;4.720;2022-10-16T01:50:05;100827.69;;;14.04;100.00
18436;BME280;9346;52.006;4.720;2022-10-16T01:52:35;100829.91;;;14.02;100.00
18436;BME280;9346;52.006;4.720;2022-10-16T01:55:07;100827.22;;;13.97;100.00
18436;BME280;9346;52.006;4.720;2022-10-16T01:57:40;100833.84;;;13.96;100.00
18436;BME280;9346;52.006;4.720;2022-10-16T02:00:12;100838.88;;;13.94;100.00
18436;BME280;9346;52.006;4.720;2022-10-16T02:02:41;100833.41;;;13.89;100.00
18436;BME280;9346;52.006;4.720;2022-10-16T02:05:16;100834.00;;;13.86;100.00
18436;BME280;9346;52.006;4.720;2022-10-16T02:07:44;100845.66;;;13.83;100.00
18436;BME280;9346;52.006;4.720;2022-10-16T02:10:11;100840.72;;;13.80;100.00
18436;BME280;9346;52.006;4.720;2022-10-16T02:12:43;100842.66;;;13.79;100.00
18436;BME280;9346;52.006;4.720;2022-10-16T02:15:13;100846.56;;;13.78;100.00
18436;BME280;9346;52.006;4.720;2022-10-16T02:17:41;100849.63;;;13.77;100.00
18436;BME280;9346;52.006;4.720;2022-10-16T02:20:09;100846.88;;;13.77;100.00
18436;BME280;9346;52.006;4.720;2022-10-16T02:22:39;100855.16;;;13.77;100.00
18436;BME280;9346;52.006;4.720;2022-10-16T02:25:10;100850.72;;;13.76;100.00
18436;BME280;9346;52.006;4.720;2022-10-16T02:27:48;100848.78;;;13.76;100.00
18436;BME280;9346;52.006;4.720;2022-10-16T02:30:24;100842.72;;;13.74;100.00
18436;BME280;9346;52.006;4.720;2022-10-16T02:32:53;100855.75;;;13.74;100.00
18436;BME280;9346;52.006;4.720;2022-10-16T02:35:23;100854.91;;;13.73;100.00
18436;BME280;9346;52.006;4.720;2022-10-16T02:37:53;100859.03;;;13.76;100.00
18436;BME280;9346;52.006;4.720;2022-10-16T02:40:22;100854.63;;;13.75;100.00
18436;BME280;9346;52.006;4.720;2022-10-16T02:42:53;100858.44;;;13.79;100.00
18436;BME280;9346;52.006;4.720;2022-10-16T02:45:22;100852.91;;;13.79;100.00
18436;BME280;9346;52.006;4.720;2022-10-16T02:47:51;100864.53;;;13.81;100.00
18436;BME280;9346;52.006;4.720;2022-10-16T02:50:18;100853.97;;;13.83;100.00
18436;BME280;9346;52.006;4.720;2022-10-16T02:52:45;100854.50;;;13.85;100.00
18436;BME280;9346;52.006;4.720;2022-10-16T02:55:14;100841.19;;;13.87;100.00
18436;BME280;9346;52.006;4.720;2022-10-16T02:57:41;100841.72;;;13.89;100.00
18436;BME280;9346;52.006;4.720;2022-10-16T03:00:15;100827.34;;;13.87;100.00
18436;BME280;9346;52.006;4.720;2022-10-16T03:02:42;100827.88;;;13.89;100.00
18436;BME280;9346;52.006;4.720;2022-10-16T03:05:10;100827.88;;;13.89;100.00
18436;BME280;9346;52.006;4.720;2022-10-16T03:07:37;100834.53;;;13.88;100.00
18436;BME280;9346;52.006;4.720;2022-10-16T03:10:06;100837.59;;;13.86;100.00
18436;BME280;9346;52.006;4.720;2022-10-16T03:12:34;100850.91;;;13.84;100.00
18436;BME280;9346;52.006;4.720;2022-10-16T03:15:02;100861.16;;;13.84;100.00
18436;BME280;9346;52.006;4.720;2022-10-16T03:17:32;100854.81;;;13.83;100.00
18436;BME280;9346;52.006;4.720;2022-10-16T03:20:00;100870.88;;;13.81;100.00
18436;BME280;9346;52.006;4.720;2022-10-16T03:22:27;100866.47;;;13.80;100.00
18436;BME280;9346;52.006;4.720;2022-10-16T03:24:54;100868.09;;;13.81;100.00
18436;BME280;9346;52.006;4.720;2022-10-16T03:27:23;100875.00;;;13.84;100.00
18436;BME280;9346;52.006;4.720;2022-10-16T03:29:50;100876.66;;;13.85;100.00
18436;BME280;9346;52.006;4.720;2022-10-16T03:32:18;100872.75;;;13.86;100.00
18436;BME280;9346;52.006;4.720;2022-10-16T03:34:49;100881.06;;;13.86;100.00
18436;BME280;9346;52.006;4.720;2022-10-16T03:37:18;100876.91;;;13.88;100.00
18436;BME280;9346;52.006;4.720;2022-10-16T03:39:46;100876.06;;;13.88;100.00
18436;BME280;9346;52.006;4.720;2022-10-16T03:42:14;100884.38;;;13.88;100.00
18436;BME280;9346;52.006;4.720;2022-10-16T03:44:41;100881.91;;;13.86;100.00
18436;BME280;9346;52.006;4.720;2022-10-16T03:47:09;100878.88;;;13.83;100.00
18436;BME280;9346;52.006;4.720;2022-10-16T03:49:36;100887.19;;;13.83;100.00
18436;BME280;9346;52.006;4.720;2022-10-16T03:52:05;100899.09;;;13.83;100.00
18436;BME280;9346;52.006;4.720;2022-10-16T03:54:33;100900.72;;;13.84;100.00
18436;BME280;9346;52.006;4.720;2022-10-16T03:57:01;100901.56;;;13.85;100.00
18436;BME280;9346;52.006;4.720;2022-10-16T03:59:28;100907.94;;;13.85;100.00
18436;BME280;9346;52.006;4.720;2022-10-16T04:01:56;100907.34;;;13.88;100.00
18436;BME280;9346;52.006;4.720;2022-10-16T04:04:23;100909.84;;;13.90;100.00
18436;BME280;9346;52.006;4.720;2022-10-16T04:06:51;100913.69;;;13.89;100.00
18436;BME280;9346;52.006;4.720;2022-10-16T04:09:20;100911.22;;;13.87;100.00
18436;BME280;9346;52.006;4.720;2022-10-16T04:11:48;100906.28;;;13.84;100.00
18436;BME280;9346;52.006;4.720;2022-10-16T04:14:16;100914.88;;;13.83;100.00
18436;BME280;9346;52.006;4.720;2022-10-16T04:16:44;100922.66;;;13.81;100.00
18436;BME280;9346;52.006;4.720;2022-10-16T04:19:12;100924.38;;;13.77;100.00
18436;BME280;9346;52.006;4.720;2022-10-16T04:21:39;100926.59;;;13.75;100.00
18436;BME280;9346;52.006;4.720;2022-10-16T04:24:06;100927.19;;;13.72;100.00
18436;BME280;9346;52.006;4.720;2022-10-16T04:26:36;100931.38;;;13.69;100.00
18436;BME280;9346;52.006;4.720;2022-10-16T04:29:03;100935.81;;;13.65;100.00
18436;BME280;9346;52.006;4.720;2022-10-16T04:31:32;100940.84;;;13.63;100.00
18436;BME280;9346;52.006;4.720;2022-10-16T04:34:03;100946.66;;;13.62;100.00
18436;BME280;9346;52.006;4.720;2022-10-16T04:36:31;100933.41;;;13.59;100.00
18436;BME280;9346;52.006;4.720;2022-10-16T04:38:59;100948.88;;;13.60;100.00
18436;BME280;9346;52.006;4.720;2022-10-16T04:41:28;100948.88;;;13.60;100.00
18436;BME280;9346;52.006;4.720;2022-10-16T04:43:58;100961.91;;;13.59;100.00
18436;BME280;9346;52.006;4.720;2022-10-16T04:46:26;100964.69;;;13.59;100.00
18436;BME280;9346;52.006;4.720;2022-10-16T04:48:54;100973.78;;;13.60;100.00
18436;BME280;9346;52.006;4.720;2022-10-16T04:51:21;100968.25;;;13.60;100.00
18436;BME280;9346;52.006;4.720;2022-10-16T04:53:48;100982.09;;;13.60;100.00
18436;BME280;9346;52.006;4.720;2022-10-16T04:56:16;100979.03;;;13.61;100.00
18436;BME280;9346;52.006;4.720;2022-10-16T04:58:43;100979.03;;;13.61;100.00
18436;BME280;9346;52.006;4.720;2022-10-16T05:01:13;100985.41;;;13.62;100.00
18436;BME280;9346;52.006;4.720;2022-10-16T05:03:41;101003.38;;;13.64;100.00
18436;BME280;9346;52.006;4.720;2022-10-16T05:06:09;100999.47;;;13.65;100.00
18436;BME280;9346;52.006;4.720;2022-10-16T05:08:37;100999.19;;;13.67;100.00
18436;BME280;9346;52.006;4.720;2022-10-16T05:11:05;101004.44;;;13.68;100.00
18436;BME280;9346;52.006;4.720;2022-10-16T05:13:32;101000.56;;;13.69;100.00
18436;BME280;9346;52.006;4.720;2022-10-16T05:16:00;101011.34;;;13.71;100.00
18436;BME280;9346;52.006;4.720;2022-10-16T05:18:29;101013.84;;;13.72;100.00
18436;BME280;9346;52.006;4.720;2022-10-16T05:20:58;101022.66;;;13.74;100.00
18436;BME280;9346;52.006;4.720;2022-10-16T05:23:28;101012.41;;;13.75;100.00
18436;BME280;9346;52.006;4.720;2022-10-16T05:25:58;101019.09;;;13.74;100.00
18436;BME280;9346;52.006;4.720;2022-10-16T05:28:26;101012.41;;;13.75;100.00
18436;BME280;9346;52.006;4.720;2022-10-16T05:30:56;101031.50;;;13.76;100.00
18436;BME280;9346;52.006;4.720;2022-10-16T05:33:25;101027.63;;;13.77;100.00
18436;BME280;9346;52.006;4.720;2022-10-16T05:35:54;101031.72;;;13.80;100.00
18436;BME280;9346;52.006;4.720;2022-10-16T05:38:22;101041.41;;;13.82;100.00
18436;BME280;9346;52.006;4.720;2022-10-16T05:40:51;101037.81;;;13.82;100.00
18436;BME280;9346;52.006;4.720;2022-10-16T05:43:19;101046.66;;;13.84;100.00
18436;BME280;9346;52.006;4.720;2022-10-16T05:45:54;101043.91;;;13.84;100.00
18436;BME280;9346;52.006;4.720;2022-10-16T05:48:22;101058.56;;;13.84;100.00
18436;BME280;9346;52.006;4.720;2022-10-16T05:50:59;101068.53;;;13.85;100.00
18436;BME280;9346;52.006;4.720;2022-10-16T05:53:27;101061.31;;;13.84;100.00
18436;BME280;9346;52.006;4.720;2022-10-16T05:55:56;101063.28;;;13.84;100.00
18436;BME280;9346;52.006;4.720;2022-10-16T05:58:28;101056.63;;;13.85;100.00
18436;BME280;9346;52.006;4.720;2022-10-16T06:00:58;101061.59;;;13.83;100.00
18436;BME280;9346;52.006;4.720;2022-10-16T06:03:27;101059.38;;;13.85;100.00
18436;BME280;9346;52.006;4.720;2022-10-16T06:05:57;101064.38;;;13.83;100.00
18436;BME280;9346;52.006;4.720;2022-10-16T06:08:24;101063.28;;;13.84;100.00
18436;BME280;9346;52.006;4.720;2022-10-16T06:11:00;101076.00;;;13.85;100.00
18436;BME280;9346;52.006;4.720;2022-10-16T06:13:28;101074.28;;;13.89;100.00
18436;BME280;9346;52.006;4.720;2022-10-16T06:15:57;101075.13;;;13.89;100.00
18436;BME280;9346;52.006;4.720;2022-10-16T06:18:25;101073.72;;;13.92;100.00
18436;BME280;9346;52.006;4.720;2022-10-16T06:20:54;101075.91;;;13.95;100.00
18436;BME280;9346;52.006;4.720;2022-10-16T06:23:23;101070.38;;;13.95;100.00
18436;BME280;9346;52.006;4.720;2022-10-16T06:25:51;101073.13;;;13.95;100.00
18436;BME280;9346;52.006;4.720;2022-10-16T06:28:19;101077.03;;;13.94;100.00
18436;BME280;9346;52.006;4.720;2022-10-16T06:30:47;101082.56;;;13.94;100.00
18436;BME280;9346;52.006;4.720;2022-10-16T06:33:15;101083.38;;;13.94;100.00
18436;BME280;9346;52.006;4.720;2022-10-16T06:35:47;101076.75;;;13.95;100.00
18436;BME280;9346;52.006;4.720;2022-10-16T06:38:15;101077.56;;;13.96;100.00
18436;BME280;9346;52.006;4.720;2022-10-16T06:40:44;101064.84;;;13.95;100.00
18436;BME280;9346;52.006;4.720;2022-10-16T06:43:12;101070.38;;;13.95;100.00
18436;BME280;9346;52.006;4.720;2022-10-16T06:45:40;101068.16;;;13.97;100.00
18436;BME280;9346;52.006;4.720;2022-10-16T06:48:07;101073.41;;;13.98;100.00
18436;BME280;9346;52.006;4.720;2022-10-16T06:50:35;101069.50;;;13.99;100.00
18436;BME280;9346;52.006;4.720;2022-10-16T06:53:02;101080.28;;;14.01;100.00
18436;BME280;9346;52.006;4.720;2022-10-16T06:55:29;101090.25;;;14.02;100.00
18436;BME280;9346;52.006;4.720;2022-10-16T06:58:00;101102.41;;;14.06;100.00
18436;BME280;9346;52.006;4.720;2022-10-16T07:00:28;101100.16;;;14.08;100.00
18436;BME280;9346;52.006;4.720;2022-10-16T07:02:56;101108.19;;;14.09;100.00
18436;BME280;9346;52.006;4.720;2022-10-16T07:05:25;101114.25;;;14.11;100.00
18436;BME280;9346;52.006;4.720;2022-10-16T07:07:53;101133.38;;;14.13;100.00
18436;BME280;9346;52.006;4.720;2022-10-16T07:10:21;101130.31;;;14.14;100.00
18436;BME280;9346;52.006;4.720;2022-10-16T07:12:49;101140.00;;;14.12;100.00
18436;BME280;9346;52.006;4.720;2022-10-16T07:15:21;101142.47;;;14.13;100.00
18436;BME280;9346;52.006;4.720;2022-10-16T07:17:48;101156.09;;;14.10;100.00
18436;BME280;9346;52.006;4.720;2022-10-16T07:20:17;101151.16;;;14.07;100.00
18436;BME280;9346;52.006;4.720;2022-10-16T07:22:46;101158.63;;;14.06;100.00
18436;BME280;9346;52.006;4.720;2022-10-16T07:25:14;101174.44;;;14.06;100.00
18436;BME280;9346;52.006;4.720;2022-10-16T07:27:42;101178.84;;;14.07;100.00
18436;BME280;9346;52.006;4.720;2022-10-16T07:30:10;101178.00;;;14.06;100.00
18436;BME280;9346;52.006;4.720;2022-10-16T07:32:39;101198.75;;;14.09;100.00
18436;BME280;9346;52.006;4.720;2022-10-16T07:35:09;101204.00;;;14.10;100.00
18436;BME280;9346;52.006;4.720;2022-10-16T07:37:37;101208.97;;;14.13;100.00
18436;BME280;9346;52.006;4.720;2022-10-16T07:40:06;101214.22;;;14.15;100.00
18436;BME280;9346;52.006;4.720;2022-10-16T07:42:33;101229.75;;;14.16;100.00
18436;BME280;9346;52.006;4.720;2022-10-16T07:45:01;101223.09;;;14.17;100.00
18436;BME280;9346;52.006;4.720;2022-10-16T07:47:28;101230.53;;;14.21;100.00
18436;BME280;9346;52.006;4.720;2022-10-16T07:49:58;101231.91;;;14.24;100.00
18436;BME280;9346;52.006;4.720;2022-10-16T07:52:26;101226.94;;;14.26;100.00
18436;BME280;9346;52.006;4.720;2022-10-16T07:54:54;101233.53;;;14.30;100.00
18436;BME280;9346;52.006;4.720;2022-10-16T07:57:22;101241.28;;;14.33;100.00
18436;BME280;9346;52.006;4.720;2022-10-16T07:59:49;101247.88;;;14.37;100.00
18436;BME280;9346;52.006;4.720;2022-10-16T08:02:17;101248.94;;;14.41;100.00
18436;BME280;9346;52.006;4.720;2022-10-16T08:04:46;101247.28;;;14.45;100.00
18436;BME280;9346;52.006;4.720;2022-10-16T08:07:17;101253.88;;;14.49;100.00
18436;BME280;9346;52.006;4.720;2022-10-16T08:09:49;101250.25;;;14.53;100.00
18436;BME280;9346;52.006;4.720;2022-10-16T08:12:18;101258.78;;;14.57;100.00
18436;BME280;9346;52.006;4.720;2022-10-16T08:14:46;101268.78;;;14.58;100.00
18436;BME280;9346;52.006;4.720;2022-10-16T08:17:14;101268.72;;;14.63;100.00
18436;BME280;9346;52.006;4.720;2022-10-16T08:19:44;101268.41;;;14.69;100.00
18436;BME280;9346;52.006;4.720;2022-10-16T08:22:11;101263.63;;;14.75;100.00
18436;BME280;9346;52.006;4.720;2022-10-16T08:24:43;101269.44;;;14.78;100.00
18436;BME280;9346;52.006;4.720;2022-10-16T08:27:11;101271.59;;;14.81;100.00
18436;BME280;9346;52.006;4.720;2022-10-16T08:29:41;101274.34;;;14.86;100.00
18436;BME280;9346;52.006;4.720;2022-10-16T08:32:09;101276.25;;;14.91;100.00
18436;BME280;9346;52.006;4.720;2022-10-16T08:34:39;101271.47;;;14.96;100.00
18436;BME280;9346;52.006;4.720;2022-10-16T08:37:06;101285.28;;;15.01;100.00
18436;BME280;9346;52.006;4.720;2022-10-16T08:39:36;101281.09;;;15.04;100.00
18436;BME280;9346;52.006;4.720;2022-10-16T08:42:29;101289.59;;;15.12;100.00
18436;BME280;9346;52.006;4.720;2022-10-16T08:45:32;101294.81;;;15.19;100.00
18436;BME280;9346;52.006;4.720;2022-10-16T08:48:10;101293.41;;;15.21;100.00
18436;BME280;9346;52.006;4.720;2022-10-16T08:50:41;101298.38;;;15.24;100.00
18436;BME280;9346;52.006;4.720;2022-10-16T08:53:15;101300.25;;;15.29;100.00
18436;BME280;9346;52.006;4.720;2022-10-16T08:55:50;101305.75;;;15.34;100.00
18436;BME280;9346;52.006;4.720;2022-10-16T08:58:23;101308.78;;;15.37;100.00
18436;BME280;9346;52.006;4.720;2022-10-16T09:00:54;101310.16;;;15.40;100.00
18436;BME280;9346;52.006;4.720;2022-10-16T09:03:37;101319.53;;;15.44;100.00
18436;BME280;9346;52.006;4.720;2022-10-16T09:06:19;101317.00;;;15.47;100.00
18436;BME280;9346;52.006;4.720;2022-10-16T09:09:06;101331.66;;;15.53;100.00
18436;BME280;9346;52.006;4.720;2022-10-16T09:11:46;101321.88;;;15.55;100.00
18436;BME280;9346;52.006;4.720;2022-10-16T09:14:38;101329.94;;;15.57;100.00
18436;BME280;9346;52.006;4.720;2022-10-16T09:17:22;101323.19;;;15.63;100.00
18436;BME280;9346;52.006;4.720;2022-10-16T09:19:56;101331.19;;;15.70;100.00
18436;BME280;9346;52.006;4.720;2022-10-16T09:22:29;101334.72;;;15.75;100.00
18436;BME280;9346;52.006;4.720;2022-10-16T09:25:00;101336.06;;;15.78;100.00
18436;BME280;9346;52.006;4.720;2022-10-16T09:27:33;101335.25;;;15.77;100.00
18436;BME280;9346;52.006;4.720;2022-10-16T09:30:11;101340.22;;;15.80;100.00
18436;BME280;9346;52.006;4.720;2022-10-16T09:32:40;101341.56;;;15.83;100.00
18436;BME280;9346;52.006;4.720;2022-10-16T09:35:14;101341.78;;;15.86;100.00
18436;BME280;9346;52.006;4.720;2022-10-16T09:37:43;101341.75;;;15.91;100.00
18436;BME280;9346;52.006;4.720;2022-10-16T09:40:13;101348.34;;;15.95;100.00
18436;BME280;9346;52.006;4.720;2022-10-16T09:42:42;101350.81;;;15.97;100.00
18436;BME280;9346;52.006;4.720;2022-10-16T09:45:22;101348.00;;;16.02;100.00
18436;BME280;9346;52.006;4.720;2022-10-16T09:47:50;101352.97;;;16.05;100.00
18436;BME280;9346;52.006;4.720;2022-10-16T09:50:23;101347.03;;;16.11;100.00
18436;BME280;9346;52.006;4.720;2022-10-16T09:53:03;101356.09;;;16.17;100.00
18436;BME280;9346;52.006;4.720;2022-10-16T09:55:32;101355.50;;;16.20;100.00
18436;BME280;9346;52.006;4.720;2022-10-16T09:58:00;101345.47;;;16.24;100.00
18436;BME280;9346;52.006;4.720;2022-10-16T10:00:29;101354.78;;;16.33;100.00
18436;BME280;9346;52.006;4.720;2022-10-16T10:03:00;101359.13;;;16.39;100.00
18436;BME280;9346;52.006;4.720;2022-10-16T10:05:29;101350.78;;;16.39;100.00
18436;BME280;9346;52.006;4.720;2022-10-16T10:08:01;101354.06;;;16.46;100.00
18436;BME280;9346;52.006;4.720;2022-10-16T10:10:38;101350.38;;;16.50;100.00
18436;BME280;9346;52.006;4.720;2022-10-16T10:13:22;101350.91;;;16.52;100.00
18436;BME280;9346;52.006;4.720;2022-10-16T10:15:53;101344.75;;;16.55;100.00
18436;BME280;9346;52.006;4.720;2022-10-16T10:18:22;101343.00;;;16.59;100.00
18436;BME280;9346;52.006;4.720;2022-10-16T10:20:58;101348.72;;;16.68;100.00
18436;BME280;9346;52.006;4.720;2022-10-16T10:23:29;101354.81;;;16.70;100.00
18436;BME280;9346;52.006;4.720;2022-10-16T10:26:04;101366.13;;;16.73;100.00
18436;BME280;9346;52.006;4.720;2022-10-16T10:28:45;101366.38;;;16.77;100.00
18436;BME280;9346;52.006;4.720;2022-10-16T10:31:26;101362.44;;;16.78;100.00
18436;BME280;9346;52.006;4.720;2022-10-16T10:34:00;101360.03;;;16.90;100.00
18436;BME280;9346;52.006;4.720;2022-10-16T10:36:34;101365.22;;;16.96;100.00
18436;BME280;9346;52.006;4.720;2022-10-16T10:39:06;101373.56;;;16.96;100.00
18436;BME280;9346;52.006;4.720;2022-10-16T10:42:11;101382.97;;;17.00;100.00
18436;BME280;9346;52.006;4.720;2022-10-16T10:44:57;101384.59;;;17.01;100.00
18436;BME280;9346;52.006;4.720;2022-10-16T10:47:43;101375.41;;;17.01;100.00
18436;BME280;9346;52.006;4.720;2022-10-16T10:50:19;101372.34;;;17.02;100.00
18436;BME280;9346;52.006;4.720;2022-10-16T10:53:06;101374.75;;;17.09;100.00
18436;BME280;9346;52.006;4.720;2022-10-16T10:55:40;101379.94;;;17.15;100.00
18436;BME280;9346;52.006;4.720;2022-10-16T10:58:29;101379.94;;;17.15;100.00
18436;BME280;9346;52.006;4.720;2022-10-16T11:01:05;101382.38;;;17.17;100.00
18436;BME280;9346;52.006;4.720;2022-10-16T11:03:46;101381.03;;;17.14;100.00
18436;BME280;9346;52.006;4.720;2022-10-16T11:06:20;101383.81;;;17.14;100.00
18436;BME280;9346;52.006;4.720;2022-10-16T11:08:53;101391.88;;;17.16;100.00
18436;BME280;9346;52.006;4.720;2022-10-16T11:11:26;101392.09;;;17.19;100.00
18436;BME280;9346;52.006;4.720;2022-10-16T11:14:00;101400.94;;;17.21;100.00
18436;BME280;9346;52.006;4.720;2022-10-16T11:16:33;101400.88;;;17.26;100.00
18436;BME280;9346;52.006;4.720;2022-10-16T11:19:11;101397.97;;;17.31;100.00
18436;BME280;9346;52.006;4.720;2022-10-16T11:21:46;101396.56;;;17.34;100.00
18436;BME280;9346;52.006;4.720;2022-10-16T11:24:20;101404.31;;;17.37;100.00
18436;BME280;9346;52.006;4.720;2022-10-16T11:26:52;101402.81;;;17.44;100.00
18436;BME280;9346;52.006;4.720;2022-10-16T11:29:24;101400.22;;;17.48;100.00
18436;BME280;9346;52.006;4.720;2022-10-16T11:31:57;101397.38;;;17.53;100.00
18436;BME280;9346;52.006;4.720;2022-10-16T11:34:29;101403.13;;;17.56;100.00
18436;BME280;9346;52.006;4.720;2022-10-16T11:37:02;101404.88;;;17.52;100.00
18436;BME280;9346;52.006;4.720;2022-10-16T11:39:34;101410.22;;;17.49;100.00
18436;BME280;9346;52.006;4.720;2022-10-16T11:42:11;101409.94;;;17.50;100.00
18436;BME280;9346;52.006;4.720;2022-10-16T11:44:53;101413.53;;;17.51;100.00
18436;BME280;9346;52.006;4.720;2022-10-16T11:47:28;101415.31;;;17.47;100.00
18436;BME280;9346;52.006;4.720;2022-10-16T11:50:02;101412.81;;;17.45;100.00
18436;BME280;9346;52.006;4.720;2022-10-16T11:52:37;101410.34;;;17.44;100.00
18436;BME280;9346;52.006;4.720;2022-10-16T11:55:14;101411.19;;;17.44;100.00
18436;BME280;9346;52.006;4.720;2022-10-16T11:57:47;101425.00;;;17.49;100.00
18436;BME280;9346;52.006;4.720;2022-10-16T12:00:21;101424.38;;;17.52;100.00
18436;BME280;9346;52.006;4.720;2022-10-16T12:02:56;101426.03;;;17.53;100.00
18436;BME280;9346;52.006;4.720;2022-10-16T12:05:33;101419.53;;;17.58;100.00
18436;BME280;9346;52.006;4.720;2022-10-16T12:08:08;101432.03;;;17.60;100.00
18436;BME280;9346;52.006;4.720;2022-10-16T12:10:37;101430.91;;;17.61;100.00
18436;BME280;9346;52.006;4.720;2022-10-16T12:13:25;101436.66;;;17.65;100.00
18436;BME280;9346;52.006;4.720;2022-10-16T12:16:04;101440.81;;;17.67;100.00
18436;BME280;9346;52.006;4.720;2022-10-16T12:18:35;101435.03;;;17.64;100.00
18436;BME280;9346;52.006;4.720;2022-10-16T12:21:05;101440.38;;;17.60;100.00
18436;BME280;9346;52.006;4.720;2022-10-16T12:23:37;101432.66;;;17.57;100.00
18436;BME280;9346;52.006;4.720;2022-10-16T12:26:05;101433.47;;;17.58;100.00
18436;BME280;9346;52.006;4.720;2022-10-16T12:28:33;101432.03;;;17.60;100.00
18436;BME280;9346;52.006;4.720;2022-10-16T12:31:03;101436.16;;;17.63;100.00
18436;BME280;9346;52.006;4.720;2022-10-16T12:33:33;101441.22;;;17.61;100.00
18436;BME280;9346;52.006;4.720;2022-10-16T12:36:08;101438.22;;;17.57;100.00
18436;BME280;9346;52.006;4.720;2022-10-16T12:38:45;101442.34;;;17.60;100.00
18436;BME280;9346;52.006;4.720;2022-10-16T12:41:24;101441.22;;;17.61;100.00
18436;BME280;9346;52.006;4.720;2022-10-16T12:43:52;101439.75;;;17.63;100.00
18436;BME280;9346;52.006;4.720;2022-10-16T12:46:33;101447.50;;;17.66;100.00
18436;BME280;9346;52.006;4.720;2022-10-16T12:49:19;101438.03;;;17.67;100.00
18436;BME280;9346;52.006;4.720;2022-10-16T12:51:51;101442.78;;;17.67;100.00
18436;BME280;9346;52.006;4.720;2022-10-16T12:54:23;101441.31;;;17.69;100.00
18436;BME280;9346;52.006;4.720;2022-10-16T12:57:04;101444.66;;;17.71;100.00
18436;BME280;9346;52.006;4.720;2022-10-16T12:59:43;101442.16;;;17.70;100.00
18436;BME280;9346;52.006;4.720;2022-10-16T13:02:42;101441.31;;;17.69;100.00
18436;BME280;9346;52.006;4.720;2022-10-16T13:05:23;101443.81;;;17.71;100.00
18436;BME280;9346;52.006;4.720;2022-10-16T13:08:04;101446.09;;;17.69;100.00
18436;BME280;9346;52.006;4.720;2022-10-16T13:10:41;101452.47;;;17.69;100.00
18436;BME280;9346;52.006;4.720;2022-10-16T13:13:46;101460.22;;;17.72;100.00